首页
METAR-TAF:

METAR-TAF

机场 :

Chautauqua County/Jamestown Airport

Jamestown, 紐約州, 美国

纬度: 42-09N, 经度: 079-16W, 海拔: 525米

当前天气观测

该预报发布于21分钟前的07:56 UTC
风速10节,风向西南
温度 -1°C
湿度 93%
气压 1008 hPa
能見度: 12.9公里
多云层高于600英尺
阴天层高于1700英尺
小雪

METAR: KJHW 260756Z AUTO 22010KT 8SM -SN BKN006 OVC017 M01/M02 A2976 RMK AO2 CIG 004V010 SLP098 P0000 T10111017 FZRANO

时间: 03:17 (08:17 UTC)

预报

该预报发布于2小时和37分钟前的05:40 UTC
预报有效从26日的 06点(UTC)到 27日的 06点(UTC)
风速12节,风向西转西南
能見度: 4.8公里
阴天层高于400英尺
小雪, 轻雾
从 26日的 1000点(UTC)
风速10节,风向西转西南,有时为16节阵风
能見度: 3.2公里
阴天层高于700英尺
小雪, 轻雾
从 26日的 1600点(UTC)
风速12节,风向西转西南,有时为21节阵风
能見度: 8.0公里
阴天层高于700英尺
小雪

TAF: KJHW 260540Z 2606/2706 24012KT 3SM -SN BR OVC004 FM261000 25010G16KT 2SM -SN BR OVC007 FM261600 24012G21KT 5SM -SN OVC007

超过4000个机场的气象观测和天气预报(METAR&TAF报告)。

可查询的气象台以黄色和红色小点在地图上表示。

将鼠标移到小点上方,可查看气象台名称。

然后点击查看天气观测和预报。

如需切换地图:点击带黑十字的绿色按钮放大地图;点击带横线的绿色按钮缩小地图;或者点击绿色箭头查看邻近地区的地图。


METAR-TAF: